Time;durP1;ratioP1;P1;durP2;ratioP2;P2;SDS_P1;SDS_P2;PMS_P1;PMS_P2;Temp;Humidity;BMP_temperature;BMP_pressure;BME280_temperature;BME280_humidity;BME280_pressure;Samples;Min_cycle;Max_cycle;Signal;HPM_P1;HPM_P2
2022/09/05 00:02:35;;;;;;;6.50;3.25;;;23.20;71.20;;;;;;4995935;28;20018;-92
2022/09/05 00:05:19;;;;;;;6.55;3.08;;;23.20;71.40;;;;;;4979255;28;20387;-92
2022/09/05 00:08:15;;;;;;;5.07;3.00;;;23.20;71.50;;;;;;5004250;28;20034;-93
2022/09/05 00:10:52;;;;;;;5.97;3.28;;;23.10;71.70;;;;;;4971718;28;20039;-92
2022/09/05 00:13:23;;;;;;;5.35;2.58;;;23.10;71.90;;;;;;5012149;28;20476;-92
2022/09/05 00:16:13;;;;;;;5.32;2.70;;;23.00;72.00;;;;;;4999009;28;20113;-93
2022/09/05 00:18:56;;;;;;;5.82;3.08;;;23.00;72.20;;;;;;4998805;28;20030;-92
2022/09/05 00:21:57;;;;;;;5.07;3.20;;;23.00;72.20;;;;;;4999351;28;20457;-93
2022/09/05 00:24:44;;;;;;;4.95;3.08;;;23.00;72.60;;;;;;4984280;28;20046;-93
2022/09/05 00:27:14;;;;;;;5.75;3.15;;;22.90;72.60;;;;;;4999556;28;20034;-93
2022/09/05 00:30:02;;;;;;;5.30;3.25;;;22.90;72.70;;;;;;4999740;28;20026;-92
2022/09/05 00:32:40;;;;;;;5.20;2.90;;;22.90;73.00;;;;;;4983166;28;20038;-92
2022/09/05 00:35:28;;;;;;;4.95;2.97;;;22.90;73.00;;;;;;4999391;28;20030;-93
2022/09/05 00:37:55;;;;;;;5.25;2.78;;;22.80;73.10;;;;;;4999931;28;20023;-93
2022/09/05 00:40:24;;;;;;;3.95;2.70;;;22.80;73.20;;;;;;4984166;28;20026;-93
2022/09/05 00:43:08;;;;;;;4.47;2.75;;;22.80;73.30;;;;;;5000565;28;20387;-92
2022/09/05 00:45:38;;;;;;;4.35;2.70;;;22.70;73.50;;;;;;4991553;28;20113;-92
2022/09/05 00:48:17;;;;;;;4.53;2.55;;;22.70;73.50;;;;;;4998638;28;20065;-92
2022/09/05 00:50:52;;;;;;;5.05;3.08;;;22.70;73.70;;;;;;4998895;28;20030;-92
2022/09/05 00:53:29;;;;;;;4.95;3.20;;;22.60;73.60;;;;;;4988210;28;20046;-92
2022/09/05 00:56:13;;;;;;;6.18;3.50;;;22.60;73.70;;;;;;4975754;28;20067;-91
2022/09/05 00:58:53;;;;;;;5.78;3.10;;;22.60;73.90;;;;;;4976132;28;20019;-92
2022/09/05 01:01:31;;;;;;;4.30;3.03;;;22.60;73.90;;;;;;4976046;28;20118;-92
2022/09/05 01:04:27;;;;;;;6.05;3.15;;;22.50;73.80;;;;;;4976018;28;20362;-92
2022/09/05 01:07:19;;;;;;;6.53;3.15;;;22.50;74.10;;;;;;4964934;28;20039;-92
2022/09/05 01:09:55;;;;;;;3.42;2.90;;;22.50;74.10;;;;;;4975629;28;20031;-92
2022/09/05 01:12:44;;;;;;;5.22;3.10;;;22.40;74.20;;;;;;4976082;28;20429;-93
2022/09/05 01:15:28;;;;;;;4.90;3.20;;;22.40;74.40;;;;;;4946945;28;20078;-92
2022/09/05 01:18:21;;;;;;;4.45;2.75;;;22.40;74.40;;;;;;4975562;28;20059;-91
2022/09/05 01:20:50;;;;;;;4.68;3.50;;;22.30;74.70;;;;;;4954296;28;20481;-93
2022/09/05 01:23:56;;;;;;;4.72;3.45;;;22.30;74.70;;;;;;4975159;28;20038;-92
2022/09/05 01:26:47;;;;;;;5.15;3.40;;;22.30;74.90;;;;;;4975763;28;20429;-93
2022/09/05 01:29:59;;;;;;;4.88;3.58;;;22.30;75.20;;;;;;4975086;28;20054;-92
2022/09/05 01:32:48;;;;;;;5.53;3.30;;;22.20;75.40;;;;;;4944979;28;20037;-92
2022/09/05 01:35:41;;;;;;;6.13;3.72;;;22.20;75.40;;;;;;4974759;28;20042;-92
2022/09/05 01:38:31;;;;;;;5.53;3.60;;;22.20;75.60;;;;;;4971178;28;20401;-92
2022/09/05 01:41:05;;;;;;;5.85;3.60;;;22.10;75.60;;;;;;4964879;28;20551;-92
2022/09/05 01:44:11;;;;;;;4.57;3.85;;;22.10;75.60;;;;;;4975978;28;20028;-92
2022/09/05 01:47:08;;;;;;;6.78;3.90;;;22.10;76.00;;;;;;4975719;28;20031;-92
2022/09/05 01:50:29;;;;;;;6.60;3.92;;;22.00;76.00;;;;;;4965931;28;20031;-92
2022/09/05 01:53:13;;;;;;;6.15;4.00;;;22.00;76.10;;;;;;4976011;28;20133;-91
2022/09/05 01:56:06;;;;;;;6.00;4.10;;;22.00;76.20;;;;;;4978270;28;20027;-92
2022/09/05 01:58:32;;;;;;;6.22;4.03;;;21.90;76.30;;;;;;4977728;28;20069;-92
2022/09/05 02:01:21;;;;;;;6.90;4.28;;;21.90;76.30;;;;;;4972922;28;20023;-92
2022/09/05 02:03:56;;;;;;;8.85;4.47;;;21.90;76.40;;;;;;4985565;28;20082;-91
2022/09/05 02:06:55;;;;;;;9.02;4.85;;;21.90;76.50;;;;;;4993530;28;20054;-92
2022/09/05 02:09:39;;;;;;;8.25;4.38;;;21.90;76.70;;;;;;4993300;28;20058;-91
2022/09/05 02:12:13;;;;;;;6.80;4.75;;;21.80;76.80;;;;;;4978612;28;20035;-91
2022/09/05 02:15:02;;;;;;;6.47;4.63;;;21.80;77.00;;;;;;4994187;28;20057;-92
2022/09/05 02:17:40;;;;;;;6.45;4.38;;;21.80;77.10;;;;;;4993028;28;20035;-93
2022/09/05 02:20:34;;;;;;;7.63;4.72;;;21.70;77.30;;;;;;5004166;28;20038;-92
2022/09/05 02:23:14;;;;;;;7.45;4.97;;;21.70;77.40;;;;;;4993143;28;20491;-92
2022/09/05 02:26:11;;;;;;;6.83;4.53;;;21.70;77.50;;;;;;4993700;28;20023;-92
2022/09/05 02:29:04;;;;;;;6.68;4.70;;;21.70;77.90;;;;;;4966105;28;20285;-90
2022/09/05 02:31:38;;;;;;;6.47;5.00;;;21.60;77.70;;;;;;4993359;28;20066;-92
2022/09/05 02:34:11;;;;;;;7.95;5.30;;;21.60;77.90;;;;;;4993375;28;20034;-91
2022/09/05 02:37:00;;;;;;;6.35;4.93;;;21.60;78.10;;;;;;4993028;28;20037;-92
2022/09/05 02:39:39;;;;;;;6.93;5.45;;;21.60;78.40;;;;;;4993508;28;20077;-92
2022/09/05 02:42:26;;;;;;;7.55;5.43;;;21.60;78.40;;;;;;4981196;28;20098;-93
2022/09/05 02:45:01;;;;;;;7.88;5.40;;;21.60;78.70;;;;;;4993067;28;20092;-92
2022/09/05 02:47:34;;;;;;;8.50;5.93;;;21.60;78.70;;;;;;4978027;28;20023;-91
2022/09/05 02:50:28;;;;;;;8.60;5.78;;;21.60;78.90;;;;;;4999462;28;20222;-92
2022/09/05 02:52:55;;;;;;;6.38;5.50;;;21.50;79.10;;;;;;4977257;28;20050;-91
2022/09/05 02:55:59;;;;;;;10.20;6.15;;;21.50;79.10;;;;;;4992947;28;20034;-91
2022/09/05 02:58:43;;;;;;;7.53;5.82;;;21.50;79.40;;;;;;4966692;28;20074;-92
2022/09/05 03:01:42;;;;;;;8.52;6.05;;;21.50;79.60;;;;;;4993422;28;20477;-93
2022/09/05 03:04:36;;;;;;;6.90;6.00;;;21.40;79.70;;;;;;4993587;28;20019;-91
2022/09/05 03:07:27;;;;;;;8.60;5.93;;;21.40;79.90;;;;;;4992554;28;20046;-92
2022/09/05 03:10:08;;;;;;;9.00;6.87;;;21.40;79.80;;;;;;4981934;28;20022;-91
2022/09/05 03:13:13;;;;;;;8.43;6.10;;;21.40;80.00;;;;;;4992544;28;20087;-91
2022/09/05 03:15:57;;;;;;;6.95;6.07;;;21.40;80.20;;;;;;4976532;28;20027;-91
2022/09/05 03:19:01;;;;;;;7.25;6.07;;;21.30;80.30;;;;;;4992496;28;20042;-92
2022/09/05 03:21:40;;;;;;;7.63;6.30;;;21.30;80.50;;;;;;4978860;28;20392;-91
2022/09/05 03:24:33;;;;;;;9.40;6.63;;;21.30;80.50;;;;;;4992543;28;20035;-91
2022/09/05 03:27:29;;;;;;;8.65;6.68;;;21.30;80.70;;;;;;4992316;28;20030;-91
2022/09/05 03:30:14;;;;;;;7.95;6.30;;;21.30;81.00;;;;;;4976551;28;20023;-92
2022/09/05 03:32:55;;;;;;;6.90;6.20;;;21.30;81.00;;;;;;4991413;28;20117;-91
2022/09/05 03:35:52;;;;;;;8.80;7.13;;;21.20;81.10;;;;;;4979959;28;20027;-92
2022/09/05 03:38:55;;;;;;;10.60;6.90;;;21.20;81.20;;;;;;4978126;28;20054;-90
2022/09/05 03:41:26;;;;;;;9.13;6.93;;;21.20;81.40;;;;;;4994622;28;20069;-91
2022/09/05 03:44:04;;;;;;;8.57;7.30;;;21.20;81.40;;;;;;4983917;28;20023;-90
2022/09/05 03:46:54;;;;;;;11.10;6.93;;;21.10;81.50;;;;;;4993348;28;20061;-91
2022/09/05 03:49:48;;;;;;;8.70;7.20;;;21.10;81.70;;;;;;4992516;28;20022;-91
2022/09/05 03:52:46;;;;;;;9.05;7.10;;;21.10;81.80;;;;;;4991978;28;20046;-91
2022/09/05 03:55:19;;;;;;;9.35;7.10;;;21.10;82.00;;;;;;4975396;28;20034;-92
2022/09/05 03:58:25;;;;;;;9.13;7.15;;;21.10;82.00;;;;;;4976199;28;20098;-91
2022/09/05 04:01:15;;;;;;;9.45;6.90;;;21.00;82.20;;;;;;4971913;28;20034;-92
2022/09/05 04:03:46;;;;;;;9.02;7.45;;;21.00;82.30;;;;;;4992177;28;20058;-91
2022/09/05 04:06:37;;;;;;;8.88;7.40;;;21.00;82.30;;;;;;4992374;28;20091;-90
2022/09/05 04:09:15;;;;;;;9.82;7.55;;;21.00;82.40;;;;;;4992104;28;20027;-91
2022/09/05 04:11:43;;;;;;;10.13;7.53;;;21.00;82.60;;;;;;4991407;28;20038;-90
2022/09/05 04:14:26;;;;;;;8.57;7.63;;;20.90;82.60;;;;;;4992149;28;20106;-92
2022/09/05 04:17:30;;;;;;;9.30;7.55;;;20.90;82.80;;;;;;4991869;28;20038;-91
2022/09/05 04:20:01;;;;;;;9.77;7.78;;;20.90;83.00;;;;;;4964958;28;20031;-93
2022/09/05 04:23:06;;;;;;;9.73;7.82;;;20.80;83.00;;;;;;4992069;28;20069;-92
2022/09/05 04:25:44;;;;;;;10.02;7.80;;;20.80;83.40;;;;;;4983802;28;20031;-91
2022/09/05 04:28:36;;;;;;;10.10;7.90;;;20.80;83.30;;;;;;4991637;28;20054;-91
2022/09/05 04:31:05;;;;;;;10.40;8.18;;;20.80;83.50;;;;;;4991847;28;20031;-92
2022/09/05 04:33:44;;;;;;;10.52;8.30;;;20.80;83.40;;;;;;4992622;28;20031;-91
2022/09/05 04:36:36;;;;;;;9.10;7.75;;;20.70;83.50;;;;;;4996956;28;20030;-92
2022/09/05 04:39:17;;;;;;;9.45;7.72;;;20.70;83.60;;;;;;4992134;28;20029;-92
2022/09/05 04:41:55;;;;;;;11.68;8.32;;;20.70;83.70;;;;;;4986336;28;20086;-92
2022/09/05 04:44:31;;;;;;;9.95;8.77;;;20.70;83.90;;;;;;4968265;28;20061;-91
2022/09/05 04:47:21;;;;;;;9.32;8.43;;;20.70;84.00;;;;;;4977079;28;20042;-92
2022/09/05 04:50:07;;;;;;;10.98;8.70;;;20.60;84.00;;;;;;4991792;28;20050;-92
2022/09/05 04:52:35;;;;;;;9.15;8.23;;;20.60;84.30;;;;;;4979488;28;20061;-92
2022/09/05 04:55:13;;;;;;;9.23;8.05;;;20.60;84.30;;;;;;4989279;28;20033;-90
2022/09/05 04:57:55;;;;;;;9.60;8.60;;;20.60;84.50;;;;;;4994505;28;20058;-91
2022/09/05 05:00:41;;;;;;;10.48;9.02;;;20.50;84.60;;;;;;4995513;28;20027;-91
2022/09/05 05:03:16;;;;;;;12.27;8.73;;;20.50;84.80;;;;;;4992035;28;20022;-92
2022/09/05 05:05:47;;;;;;;11.05;8.98;;;20.50;84.90;;;;;;4986993;28;20515;-90
2022/09/05 05:08:55;;;;;;;12.73;8.82;;;20.50;85.00;;;;;;4971885;28;20558;-88
2022/09/05 05:11:43;;;;;;;9.90;8.75;;;20.50;85.30;;;;;;4995861;28;20056;-91
2022/09/05 05:14:46;;;;;;;;;;;;;;;;;;;;;
2022/09/05 05:17:27;;;;;;;9.43;8.45;;;20.40;85.70;;;;;;5006174;28;20069;-91
2022/09/05 05:20:06;;;;;;;14.82;9.40;;;20.40;85.70;;;;;;5009233;28;20017;-92
2022/09/05 05:22:31;;;;;;;10.82;9.63;;;20.30;85.70;;;;;;4989464;28;20082;-92
2022/09/05 05:24:59;;;;;;;14.63;8.93;;;20.30;85.90;;;;;;4990376;28;20022;-91
2022/09/05 05:27:43;;;;;;;11.55;9.95;;;20.30;86.00;;;;;;4982681;28;20042;-91
2022/09/05 05:30:10;;;;;;;12.77;10.07;;;20.30;86.20;;;;;;4982388;28;20487;-92
2022/09/05 05:32:45;;;;;;;13.52;9.82;;;20.30;86.30;;;;;;4974780;28;20089;-91
2022/09/05 05:35:20;;;;;;;9.50;8.50;;;20.30;86.50;;;;;;4992661;28;20027;-93
2022/09/05 05:37:50;;;;;;;12.43;9.02;;;20.30;86.70;;;;;;4997788;28;20038;-93
2022/09/05 05:40:16;;;;;;;11.77;9.45;;;20.30;86.80;;;;;;4997546;28;20029;-92
2022/09/05 05:42:43;;;;;;;12.25;9.98;;;20.30;86.90;;;;;;4997622;28;20042;-92
2022/09/05 05:45:29;;;;;;;11.43;8.85;;;20.30;87.10;;;;;;4993820;28;20110;-93
2022/09/05 05:48:02;;;;;;;12.35;9.32;;;20.20;87.30;;;;;;4990638;28;20027;-93
2022/09/05 05:51:05;;;;;;;12.25;9.10;;;20.20;87.40;;;;;;4995720;28;20094;-92
2022/09/05 05:53:56;;;;;;;10.45;8.52;;;20.20;87.60;;;;;;4988579;28;20109;-92
2022/09/05 05:56:39;;;;;;;11.73;9.02;;;20.20;88.00;;;;;;5004501;28;20030;-92
2022/09/05 05:59:31;;;;;;;14.02;9.43;;;20.20;88.10;;;;;;4997253;28;20061;-92
2022/09/05 06:02:15;;;;;;;14.23;9.82;;;20.20;88.20;;;;;;4996730;28;20019;-93
2022/09/05 06:04:56;;;;;;;17.52;9.65;;;20.20;88.60;;;;;;4998781;28;20022;-93
2022/09/05 06:07:59;;;;;;;11.75;9.23;;;20.20;88.70;;;;;;5011612;23;20046;-92
2022/09/05 06:10:44;;;;;;;9.48;8.10;;;20.20;88.90;;;;;;5001420;28;20120;-93
2022/09/05 06:13:39;;;;;;;14.75;9.88;;;20.20;89.00;;;;;;5013790;28;20134;-94
2022/09/05 06:16:36;;;;;;;13.73;9.52;;;20.20;89.10;;;;;;5002508;28;20026;-93
2022/09/05 06:19:40;;;;;;;11.32;8.88;;;20.30;89.40;;;;;;5018485;28;20121;-94
2022/09/05 06:22:32;;;;;;;14.55;7.68;;;20.30;89.60;;;;;;5010199;28;20471;-93
2022/09/05 06:25:39;;;;;;;13.07;8.90;;;20.30;89.70;;;;;;4989215;28;20045;-94
2022/09/05 06:28:05;;;;;;;12.00;8.60;;;20.30;89.80;;;;;;4919412;29;20032;-93
2022/09/05 06:30:44;;;;;;;13.05;8.57;;;20.30;90.00;;;;;;4991012;28;20514;-94
2022/09/05 06:33:30;;;;;;;12.20;8.40;;;20.30;90.00;;;;;;5016875;28;20113;-94
2022/09/05 06:36:13;;;;;;;13.00;8.48;;;20.40;90.10;;;;;;5018430;28;20489;-94
2022/09/05 06:38:58;;;;;;;12.52;9.18;;;20.40;90.20;;;;;;5001868;28;20033;-94
2022/09/05 06:41:24;;;;;;;9.25;8.13;;;20.40;90.30;;;;;;5018561;28;20017;-95
2022/09/05 06:44:31;;;;;;;10.85;8.32;;;20.50;90.30;;;;;;5018484;28;20029;-95
2022/09/05 06:47:05;;;;;;;12.25;8.45;;;20.50;90.40;;;;;;5002082;28;20136;-94
2022/09/05 06:49:57;;;;;;;9.80;8.57;;;20.50;90.40;;;;;;5001118;28;20465;-95
2022/09/05 06:52:58;;;;;;;10.63;7.85;;;20.50;90.40;;;;;;5000892;28;20034;-95
2022/09/05 06:55:32;;;;;;;11.18;7.68;;;20.60;90.40;;;;;;4970411;28;20037;-95
2022/09/05 06:58:26;;;;;;;10.55;7.50;;;20.60;90.40;;;;;;5001589;28;20037;-94
2022/09/05 07:00:54;;;;;;;8.55;7.55;;;20.60;90.40;;;;;;5016248;28;20117;-92
2022/09/05 07:03:38;;;;;;;8.82;7.63;;;20.60;90.40;;;;;;5000790;28;20038;-95
2022/09/05 07:06:33;;;;;;;13.30;8.30;;;20.70;90.50;;;;;;5018772;28;20018;-94
2022/09/05 07:09:07;;;;;;;14.98;9.27;;;20.70;90.50;;;;;;5017363;28;20129;-94
2022/09/05 07:11:52;;;;;;;13.20;7.93;;;20.70;90.50;;;;;;5000482;28;20084;-90
2022/09/05 07:14:26;;;;;;;8.65;7.43;;;20.80;90.50;;;;;;5017639;28;20080;-93
2022/09/05 07:16:58;;;;;;;11.55;7.78;;;20.80;90.50;;;;;;5017442;28;20022;-92
2022/09/05 07:19:29;;;;;;;10.88;7.93;;;20.90;90.50;;;;;;5017459;28;20073;-84
2022/09/05 07:22:32;;;;;;;10.35;7.82;;;20.90;90.50;;;;;;5014585;28;20434;-85
2022/09/05 07:25:03;;;;;;;10.18;7.90;;;21.00;90.50;;;;;;4999287;28;20041;-85
2022/09/05 07:27:42;;;;;;;11.93;7.32;;;21.00;90.40;;;;;;5016735;28;20030;-94
2022/09/05 07:30:12;;;;;;;13.55;8.27;;;21.00;90.40;;;;;;5013480;28;20022;-94
2022/09/05 07:32:45;;;;;;;10.90;7.55;;;21.00;90.40;;;;;;4985411;28;20050;-93
2022/09/05 07:35:31;;;;;;;8.85;7.22;;;21.10;90.40;;;;;;4987834;28;20021;-93
2022/09/05 07:38:13;;;;;;;10.05;8.18;;;21.20;90.40;;;;;;5016214;28;20030;-93
2022/09/05 07:40:51;;;;;;;10.02;8.35;;;21.20;90.30;;;;;;5016341;28;20013;-92
2022/09/05 07:43:32;;;;;;;17.80;8.02;;;21.30;90.30;;;;;;5017226;28;20017;-93
2022/09/05 07:46:23;;;;;;;11.60;8.00;;;21.30;90.30;;;;;;5017141;28;20022;-92
2022/09/05 07:49:01;;;;;;;10.60;7.13;;;21.40;90.30;;;;;;5016114;28;20014;-92
2022/09/05 07:51:33;;;;;;;11.38;7.00;;;21.40;90.30;;;;;;5016653;28;20025;-93
2022/09/05 07:54:12;;;;;;;9.75;7.07;;;21.50;90.30;;;;;;5015392;28;20375;-90
2022/09/05 07:56:44;;;;;;;9.73;7.15;;;21.50;90.40;;;;;;5014592;28;20030;-90
2022/09/05 07:59:15;;;;;;;9.52;7.32;;;21.60;90.50;;;;;;5014161;28;20076;-89
2022/09/05 08:01:45;;;;;;;9.63;6.70;;;21.70;90.50;;;;;;5015554;28;20379;-90
2022/09/05 08:04:34;;;;;;;8.52;6.43;;;21.70;90.50;;;;;;5015440;28;20010;-90
2022/09/05 08:07:31;;;;;;;7.60;5.93;;;21.80;90.50;;;;;;5014893;28;20462;-89
2022/09/05 08:10:07;;;;;;;7.10;5.68;;;21.90;90.30;;;;;;5003384;28;20066;-92
2022/09/05 08:12:38;;;;;;;7.45;5.68;;;22.00;90.30;;;;;;5015064;28;20033;-90
2022/09/05 08:15:13;;;;;;;7.95;5.75;;;22.00;90.30;;;;;;5015512;28;20028;-90
2022/09/05 08:17:54;;;;;;;7.82;4.97;;;22.10;90.30;;;;;;5014725;28;20037;-89
2022/09/05 08:20:32;;;;;;;8.02;5.95;;;22.20;90.20;;;;;;4999046;28;20025;-90
2022/09/05 08:23:07;;;;;;;9.43;5.80;;;22.30;90.10;;;;;;4997696;28;20025;-91
2022/09/05 08:25:48;;;;;;;6.35;5.03;;;22.30;90.10;;;;;;4997920;28;20455;-90
2022/09/05 08:28:20;;;;;;;;;;;22.40;90.10;;;;;;4998114;28;20502;-93
2022/09/05 08:30:54;;;;;;;7.22;4.80;;;22.50;90.10;;;;;;5010056;28;19981;-93
2022/09/05 08:33:24;;;;;;;7.65;5.20;;;22.50;90.00;;;;;;5018085;28;20141;-93
2022/09/05 08:35:56;;;;;;;7.40;4.70;;;22.60;90.00;;;;;;5020032;28;20137;-92
2022/09/05 08:38:23;;;;;;;7.38;4.60;;;22.70;89.90;;;;;;5019175;28;20616;-93
2022/09/05 08:41:06;;;;;;;6.90;4.05;;;22.80;89.80;;;;;;4987519;28;20040;-93
2022/09/05 08:43:43;;;;;;;6.85;4.38;;;22.90;89.60;;;;;;5019253;28;20468;-92
2022/09/05 08:46:32;;;;;;;5.13;3.60;;;23.00;89.40;;;;;;5002665;28;20022;-92
2022/09/05 08:49:38;;;;;;;13.00;3.90;;;23.10;89.20;;;;;;5020849;28;20034;-91
2022/09/05 08:52:04;;;;;;;5.38;3.38;;;23.20;88.60;;;;;;5008392;28;20033;-92
2022/09/05 08:54:42;;;;;;;7.47;4.00;;;23.30;88.00;;;;;;5020079;28;20018;-94
2022/09/05 08:57:46;;;;;;;8.07;3.40;;;23.40;87.20;;;;;;5018736;28;20053;-92
2022/09/05 09:00:19;;;;;;;4.43;3.33;;;23.50;86.90;;;;;;5017639;28;20022;-92
2022/09/05 09:02:47;;;;;;;4.25;3.00;;;23.60;86.50;;;;;;5001996;28;20160;-92
2022/09/05 09:05:27;;;;;;;5.18;2.53;;;23.70;85.90;;;;;;5001755;28;20025;-92
2022/09/05 09:08:02;;;;;;;6.43;2.83;;;23.70;85.90;;;;;;5001484;28;20088;-92
2022/09/05 09:10:33;;;;;;;4.53;2.70;;;23.80;85.00;;;;;;5019516;28;20022;-92
2022/09/05 09:13:08;;;;;;;7.18;2.63;;;23.90;84.70;;;;;;4988241;28;20029;-93
2022/09/05 09:15:59;;;;;;;4.78;2.00;;;24.10;84.40;;;;;;5001605;28;20029;-93
2022/09/05 09:18:44;;;;;;;3.60;1.90;;;24.10;84.00;;;;;;5011366;28;20026;-93
2022/09/05 09:21:39;;;;;;;4.43;2.30;;;24.20;83.60;;;;;;5020779;28;20022;-92
2022/09/05 09:24:17;;;;;;;5.10;2.30;;;24.40;83.10;;;;;;5018580;28;20017;-94
2022/09/05 09:27:02;;;;;;;6.07;2.08;;;24.50;82.60;;;;;;5018138;28;20026;-93
2022/09/05 09:29:35;;;;;;;4.78;2.22;;;24.50;82.20;;;;;;5018064;28;20030;-93
2022/09/05 09:32:28;;;;;;;3.80;2.40;;;24.60;81.50;;;;;;5017519;28;20025;-92
2022/09/05 09:35:14;;;;;;;5.57;2.10;;;24.70;80.80;;;;;;5015197;28;20044;-92
2022/09/05 09:37:58;;;;;;;9.48;2.28;;;24.80;80.20;;;;;;5017653;28;20080;-93
2022/09/05 09:40:49;;;;;;;4.63;1.90;;;24.90;79.80;;;;;;5016604;28;20025;-92
2022/09/05 09:43:26;;;;;;;7.20;2.30;;;25.10;79.50;;;;;;5016798;28;20022;-93
2022/09/05 09:46:11;;;;;;;6.80;1.70;;;25.10;78.80;;;;;;5017194;28;20022;-93
2022/09/05 09:49:10;;;;;;;3.13;1.92;;;25.30;78.10;;;;;;5015623;28;20018;-92
2022/09/05 09:52:13;;;;;;;3.22;1.80;;;25.40;77.10;;;;;;5016507;28;20033;-93
2022/09/05 09:54:58;;;;;;;3.25;1.90;;;25.50;75.90;;;;;;5016932;28;20108;-93
2022/09/05 09:57:45;;;;;;;2.60;1.65;;;25.60;75.50;;;;;;4992990;28;20022;-93
2022/09/05 10:00:22;;;;;;;5.38;1.80;;;25.70;74.90;;;;;;5018355;28;20052;-93
2022/09/05 10:03:26;;;;;;;4.85;2.17;;;25.80;74.30;;;;;;5017265;28;20428;-92
2022/09/05 10:06:10;;;;;;;2.25;1.52;;;25.90;73.00;;;;;;5001018;28;20388;-93
2022/09/05 10:08:54;;;;;;;2.95;1.73;;;26.10;72.00;;;;;;5004624;28;20100;-93
2022/09/05 10:11:53;;;;;;;3.47;1.35;;;26.10;71.30;;;;;;4998038;28;20411;-93
2022/09/05 10:14:30;;;;;;;2.95;1.30;;;26.30;71.00;;;;;;4997366;28;20081;-92
2022/09/05 10:17:11;;;;;;;2.38;1.58;;;26.30;69.90;;;;;;4996541;28;20029;-92
2022/09/05 10:20:10;;;;;;;2.63;1.40;;;26.40;69.50;;;;;;4995966;28;20022;-92
2022/09/05 10:23:15;;;;;;;4.28;1.20;;;26.50;67.60;;;;;;4999529;28;20030;-93
2022/09/05 10:26:05;;;;;;;2.33;1.17;;;26.60;65.50;;;;;;4953746;28;20424;-92
2022/09/05 10:28:41;;;;;;;;;;;26.70;64.80;;;;;;4935131;29;20020;-92
2022/09/05 10:31:18;;;;;;;4.00;1.02;;;26.80;64.60;;;;;;4979628;28;19929;-92
2022/09/05 10:33:53;;;;;;;2.70;1.20;;;26.90;64.50;;;;;;4997091;28;20468;-92
2022/09/05 10:36:22;;;;;;;2.17;1.38;;;27.00;62.90;;;;;;4996280;28;20034;-91
2022/09/05 10:39:17;;;;;;;1.20;0.93;;;27.10;61.90;;;;;;4996795;28;20427;-93
2022/09/05 10:41:49;;;;;;;3.28;1.33;;;27.20;61.60;;;;;;5012117;28;20357;-94
2022/09/05 10:44:25;;;;;;;3.30;1.73;;;27.40;61.10;;;;;;4998358;28;20030;-91
2022/09/05 10:47:11;;;;;;;1.88;1.15;;;27.40;61.00;;;;;;4995834;28;20461;-89
2022/09/05 10:49:43;;;;;;;5.18;1.75;;;27.50;61.40;;;;;;4975690;28;20046;-91
2022/09/05 10:52:33;;;;;;;2.35;1.20;;;27.60;61.10;;;;;;5011558;28;20031;-91
2022/09/05 10:55:17;;;;;;;3.22;1.40;;;27.80;60.70;;;;;;4998754;28;20030;-90
2022/09/05 11:01:02;;;;;;;1.67;1.00;;;28.00;59.50;;;;;;4997710;28;20069;-91
2022/09/05 11:03:43;;;;;;;1.80;1.30;;;28.10;59.40;;;;;;5001094;28;20028;-95
2022/09/05 11:06:15;;;;;;;3.92;1.33;;;28.10;59.20;;;;;;5001583;28;20023;-96
2022/09/05 11:08:52;;;;;;;1.58;1.27;;;28.30;58.50;;;;;;5021660;28;20053;-94
2022/09/05 11:11:22;;;;;;;2.10;1.40;;;28.40;58.00;;;;;;5023170;28;20030;-95
2022/09/05 11:14:34;;;;;;;3.65;1.42;;;28.50;56.70;;;;;;5011072;28;20085;-95
2022/09/05 11:17:11;;;;;;;4.03;2.10;;;28.60;55.90;;;;;;5013297;28;20038;-95
2022/09/05 11:19:44;;;;;;;3.80;1.70;;;28.70;56.40;;;;;;5020613;28;20025;-94
2022/09/05 11:22:12;;;;;;;5.63;1.52;;;28.80;55.90;;;;;;5015930;28;20468;-94
2022/09/05 11:24:58;;;;;;;2.60;1.50;;;28.80;54.00;;;;;;5015621;28;20025;-92
2022/09/05 11:27:46;;;;;;;1.77;1.20;;;29.00;53.90;;;;;;5015644;28;20026;-93
2022/09/05 11:30:16;;;;;;;3.58;1.30;;;29.00;53.60;;;;;;5015805;28;20069;-94
2022/09/05 11:33:03;;;;;;;1.60;1.20;;;29.20;53.80;;;;;;5015817;28;20112;-93
2022/09/05 11:35:34;;;;;;;3.22;1.42;;;29.30;53.50;;;;;;5016288;28;20034;-93
2022/09/05 11:38:08;;;;;;;3.60;1.42;;;29.40;54.00;;;;;;5015164;28;20033;-92
2022/09/05 11:41:03;;;;;;;2.20;1.30;;;29.50;54.20;;;;;;4999370;28;20026;-93
2022/09/05 11:43:38;;;;;;;2.80;1.02;;;29.60;52.90;;;;;;5016738;28;20079;-93
2022/09/05 11:46:41;;;;;;;2.60;1.33;;;29.70;52.10;;;;;;5015560;28;20014;-93
2022/09/05 11:49:34;;;;;;;1.25;1.15;;;29.80;51.70;;;;;;5015560;28;20036;-95
2022/09/05 11:52:24;;;;;;;5.22;1.35;;;29.90;51.80;;;;;;5016482;28;20030;-93
2022/09/05 11:55:08;;;;;;;2.47;1.10;;;30.00;51.70;;;;;;4996291;28;20030;-93
2022/09/05 11:57:46;;;;;;;2.65;1.27;;;30.00;51.20;;;;;;4996290;28;20030;-93
2022/09/05 12:00:58;;;;;;;2.92;1.10;;;30.10;51.50;;;;;;4995992;28;20540;-92
2022/09/05 12:03:41;;;;;;;4.07;1.23;;;30.30;51.40;;;;;;4980382;28;20014;-94
2022/09/05 12:06:44;;;;;;;2.92;1.20;;;30.30;51.20;;;;;;5000336;28;20084;-93
2022/09/05 12:09:36;;;;;;;2.17;1.48;;;30.50;50.80;;;;;;4986984;28;20038;-96
2022/09/05 12:12:25;;;;;;;3.65;1.20;;;30.50;50.00;;;;;;5002710;28;20029;-93
2022/09/05 12:15:03;;;;;;;1.60;1.20;;;30.60;49.40;;;;;;5001889;28;20483;-94
2022/09/05 12:17:40;;;;;;;3.90;1.33;;;30.70;48.40;;;;;;4997111;28;20040;-94
2022/09/05 12:20:34;;;;;;;1.83;1.15;;;30.80;48.80;;;;;;5003195;28;20022;-95
2022/09/05 12:23:25;;;;;;;1.40;1.10;;;30.90;48.20;;;;;;5019164;28;20052;-94
2022/09/05 12:26:02;;;;;;;1.95;1.30;;;31.00;48.30;;;;;;5019522;28;20022;-94
2022/09/05 12:28:51;;;;;;;2.22;1.40;;;31.10;47.60;;;;;;5019484;28;20036;-93
2022/09/05 12:31:37;;;;;;;1.40;1.10;;;31.20;47.10;;;;;;5019088;28;20112;-94
2022/09/05 12:34:08;;;;;;;1.20;1.10;;;31.20;46.70;;;;;;5019179;28;20026;-94
2022/09/05 12:36:38;;;;;;;2.05;1.23;;;31.30;46.60;;;;;;5019197;28;20040;-93
2022/09/05 12:39:24;;;;;;;1.60;1.23;;;31.40;47.30;;;;;;5019640;28;20025;-94
2022/09/05 12:42:08;;;;;;;2.92;1.45;;;31.40;47.50;;;;;;4992037;28;20034;-93
2022/09/05 12:44:42;;;;;;;3.42;1.45;;;31.50;46.00;;;;;;5018762;28;20527;-93
2022/09/05 12:47:10;;;;;;;1.52;1.05;;;31.60;46.00;;;;;;5018787;28;20132;-94
2022/09/05 12:49:46;;;;;;;1.67;1.10;;;31.70;45.90;;;;;;5018971;28;20026;-93
2022/09/05 12:52:25;;;;;;;1.60;1.15;;;31.80;45.40;;;;;;5018944;28;20026;-93
2022/09/05 12:54:58;;;;;;;3.47;1.15;;;31.80;45.30;;;;;;5018696;28;20022;-93
2022/09/05 12:57:27;;;;;;;1.17;1.08;;;31.90;45.40;;;;;;5019020;28;20447;-94
2022/09/05 12:59:57;;;;;;;1.92;1.58;;;32.00;45.80;;;;;;5018462;28;20030;-94
2022/09/05 13:02:27;;;;;;;2.25;1.50;;;32.10;45.10;;;;;;5002456;28;20032;-93
2022/09/05 13:04:57;;;;;;;;;;;32.10;45.40;;;;;;5006093;28;20097;-95
2022/09/05 13:07:37;;;;;;;3.90;1.25;;;32.20;46.10;;;;;;4998880;28;19917;-94
2022/09/05 13:10:29;;;;;;;4.05;1.38;;;32.30;46.30;;;;;;5015729;28;20102;-94
2022/09/05 13:12:57;;;;;;;2.50;1.30;;;32.40;46.10;;;;;;5015862;28;20032;-94
2022/09/05 13:15:36;;;;;;;1.90;1.20;;;32.40;46.20;;;;;;5008872;28;20464;-94
2022/09/05 13:18:15;;;;;;;2.25;1.30;;;32.60;46.40;;;;;;4999540;28;20452;-95
2022/09/05 13:21:03;;;;;;;1.70;1.30;;;32.60;45.90;;;;;;5015237;28;20038;-95
2022/09/05 13:23:44;;;;;;;2.08;1.20;;;32.70;45.70;;;;;;4998909;28;20049;-94
2022/09/05 13:26:32;;;;;;;3.00;1.30;;;32.80;44.90;;;;;;5015440;28;20034;-94
2022/09/05 13:29:07;;;;;;;2.15;1.55;;;32.90;44.30;;;;;;5014959;28;20033;-94
2022/09/05 13:31:41;;;;;;;1.75;1.30;;;32.90;43.60;;;;;;5015030;28;20138;-94
2022/09/05 13:34:22;;;;;;;2.55;1.55;;;32.90;43.80;;;;;;4998752;28;20041;-94
2022/09/05 13:37:26;;;;;;;1.88;1.20;;;33.00;44.00;;;;;;4998870;28;20484;-94
2022/09/05 13:40:00;;;;;;;2.00;1.38;;;33.00;43.80;;;;;;4998606;28;20030;-93
2022/09/05 13:42:30;;;;;;;2.40;1.50;;;33.00;43.80;;;;;;4998450;28;20157;-94
2022/09/05 13:44:57;;;;;;;;;;;33.10;43.00;;;;;;4998583;28;20058;-94
2022/09/05 13:47:55;;;;;;;3.30;1.38;;;33.10;43.30;;;;;;5014404;28;19914;-94
2022/09/05 13:50:45;;;;;;;2.25;1.42;;;33.10;43.40;;;;;;4990916;28;20476;-94
2022/09/05 13:53:17;;;;;;;;;;;33.10;43.30;;;;;;5015505;28;20021;-94
2022/09/05 13:55:52;;;;;;;2.92;1.48;;;33.20;43.80;;;;;;5031498;28;19988;-94
2022/09/05 13:58:38;;;;;;;4.63;1.30;;;33.20;44.30;;;;;;5014859;28;20105;-94
2022/09/05 14:01:42;;;;;;;3.25;1.52;;;33.30;44.30;;;;;;5013841;28;20079;-87
2022/09/05 14:04:29;;;;;;;3.47;1.42;;;33.30;43.80;;;;;;4998633;28;20109;-93
2022/09/05 14:07:25;;;;;;;2.55;1.70;;;33.40;43.20;;;;;;4997517;28;20133;-93
2022/09/05 14:10:15;;;;;;;2.17;1.30;;;33.40;42.50;;;;;;4995872;28;20076;-89
2022/09/05 14:13:01;;;;;;;2.72;1.40;;;33.40;42.40;;;;;;4984991;28;20030;-88
2022/09/05 14:15:40;;;;;;;2.75;1.33;;;33.40;41.80;;;;;;5012043;28;20025;-89